Time;durP1;ratioP1;P1;durP2;ratioP2;P2;SDS_P1;SDS_P2;PMS_P1;PMS_P2;Temp;Humidity;BMP_temperature;BMP_pressure;BME280_temperature;BME280_humidity;BME280_pressure;Samples;Min_cycle;Max_cycle;Signal;HPM_P1;HPM_P2
2022/03/19 00:02:19;;;;;;;22.80;8.63;;;5.10;99.90;;;;;;5150547;27;20107;-38
2022/03/19 00:04:45;;;;;;;19.27;8.55;;;5.00;99.90;;;;;;5149052;27;20501;-38
2022/03/19 00:07:11;;;;;;;21.30;8.65;;;4.90;99.90;;;;;;5149404;27;20030;-38
2022/03/19 00:09:39;;;;;;;15.95;8.13;;;4.90;99.90;;;;;;5150552;27;20433;-38
2022/03/19 00:12:05;;;;;;;20.85;8.77;;;4.90;99.90;;;;;;5150668;27;20465;-38
2022/03/19 00:14:30;;;;;;;22.38;8.73;;;4.80;99.90;;;;;;5150403;27;20110;-38
2022/03/19 00:16:57;;;;;;;17.23;8.50;;;4.80;99.90;;;;;;5149636;27;20098;-38
2022/03/19 00:19:23;;;;;;;16.27;8.43;;;4.70;99.90;;;;;;5150255;27;20027;-38
2022/03/19 00:21:48;;;;;;;21.88;8.95;;;4.70;99.90;;;;;;5143115;27;20034;-38
2022/03/19 00:24:14;;;;;;;14.80;8.43;;;4.70;99.90;;;;;;5147628;27;20017;-38
2022/03/19 00:26:40;;;;;;;17.35;8.80;;;4.70;99.90;;;;;;5148044;27;20026;-38
2022/03/19 00:29:05;;;;;;;18.83;8.57;;;4.70;99.90;;;;;;5150136;27;20045;-38
2022/03/19 00:31:31;;;;;;;14.55;7.65;;;4.70;99.90;;;;;;5150100;27;20031;-38
2022/03/19 00:33:57;;;;;;;16.88;9.07;;;4.70;99.90;;;;;;5149987;27;20210;-38
2022/03/19 00:36:22;;;;;;;19.83;8.10;;;4.70;99.90;;;;;;5149331;27;20083;-38
2022/03/19 00:38:48;;;;;;;17.63;8.25;;;4.80;99.90;;;;;;5149889;27;20103;-38
2022/03/19 00:41:14;;;;;;;32.80;10.68;;;4.70;99.90;;;;;;5149907;27;20019;-38
2022/03/19 00:43:39;;;;;;;18.88;8.65;;;4.80;99.90;;;;;;5149871;27;20033;-38
2022/03/19 00:46:05;;;;;;;18.35;9.10;;;4.80;99.90;;;;;;5149321;27;20029;-38
2022/03/19 00:48:30;;;;;;;20.27;8.70;;;4.80;99.90;;;;;;5149843;27;20023;-39
2022/03/19 00:50:56;;;;;;;20.23;8.43;;;4.70;99.90;;;;;;5134464;27;20039;-38
2022/03/19 00:53:21;;;;;;;18.33;8.25;;;4.70;99.90;;;;;;5137048;27;20020;-38
2022/03/19 00:55:47;;;;;;;17.40;7.68;;;4.70;99.90;;;;;;5149321;27;20031;-38
2022/03/19 00:58:12;;;;;;;19.40;8.10;;;4.70;99.90;;;;;;5149863;27;20027;-38
2022/03/19 01:00:38;;;;;;;18.90;9.20;;;4.60;99.90;;;;;;5149743;27;20076;-39
2022/03/19 01:03:04;;;;;;;16.73;8.73;;;4.60;99.90;;;;;;5149824;27;20087;-38
2022/03/19 01:05:30;;;;;;;20.67;9.23;;;4.60;99.90;;;;;;5149100;27;20027;-39
2022/03/19 01:07:56;;;;;;;17.38;7.80;;;4.60;99.90;;;;;;5151554;27;20037;-39
2022/03/19 01:10:27;;;;;;;22.35;8.75;;;4.50;99.90;;;;;;5153721;27;20101;-39
2022/03/19 01:12:54;;;;;;;19.45;8.15;;;4.40;99.90;;;;;;5153477;27;20072;-39
2022/03/19 01:15:21;;;;;;;18.15;8.20;;;4.40;99.90;;;;;;5153527;27;20387;-39
2022/03/19 01:17:47;;;;;;;19.40;8.30;;;4.40;99.90;;;;;;5152824;27;20062;-39
2022/03/19 01:20:14;;;;;;;17.88;8.30;;;4.30;99.90;;;;;;5151472;27;20022;-39
2022/03/19 01:22:41;;;;;;;18.52;8.63;;;4.30;99.90;;;;;;5132534;27;20019;-39
2022/03/19 01:25:08;;;;;;;19.25;8.13;;;4.20;99.90;;;;;;5149977;27;20054;-39
2022/03/19 01:27:35;;;;;;;16.85;8.40;;;4.20;99.90;;;;;;5152618;27;20091;-39
2022/03/19 01:30:03;;;;;;;18.63;8.38;;;4.10;99.90;;;;;;5153311;27;20026;-39
2022/03/19 01:32:28;;;;;;;19.90;9.18;;;4.20;99.90;;;;;;5151980;27;20578;-40
2022/03/19 01:34:54;;;;;;;14.82;8.10;;;4.10;99.90;;;;;;5153113;27;20146;-39
2022/03/19 01:37:21;;;;;;;18.40;9.40;;;4.10;99.90;;;;;;5152372;27;20027;-39
2022/03/19 01:39:46;;;;;;;18.20;8.85;;;4.00;99.90;;;;;;5151520;27;20023;-39
2022/03/19 01:42:21;;;;;;;18.20;9.05;;;4.00;99.90;;;;;;5151531;27;20073;-39
2022/03/19 01:44:46;;;;;;;19.02;10.15;;;4.00;99.90;;;;;;5153144;27;20139;-39
2022/03/19 01:47:12;;;;;;;29.80;10.27;;;4.00;99.90;;;;;;5152033;27;20058;-39
2022/03/19 01:49:37;;;;;;;19.05;9.85;;;4.00;99.90;;;;;;5152325;27;20376;-39
2022/03/19 01:52:06;;;;;;;21.55;11.00;;;3.90;99.90;;;;;;5134923;27;20342;-38
2022/03/19 01:54:34;;;;;;;23.95;9.68;;;3.80;99.90;;;;;;5135696;27;20011;-39
2022/03/19 01:57:01;;;;;;;22.40;9.63;;;3.80;99.90;;;;;;5152115;27;20023;-38
2022/03/19 01:59:32;;;;;;;20.23;9.10;;;3.80;99.90;;;;;;5150726;27;20031;-38
2022/03/19 02:01:58;;;;;;;28.77;10.35;;;3.80;99.90;;;;;;5152759;27;20046;-39
2022/03/19 02:04:24;;;;;;;23.38;9.90;;;3.80;99.90;;;;;;5152513;27;20030;-38
2022/03/19 02:06:51;;;;;;;19.73;9.32;;;3.70;99.90;;;;;;5151221;27;20087;-39
2022/03/19 02:09:17;;;;;;;23.05;10.55;;;3.70;99.90;;;;;;5152251;27;20015;-38
2022/03/19 02:11:44;;;;;;;16.02;8.55;;;3.60;99.90;;;;;;5152238;27;20019;-38
2022/03/19 02:14:09;;;;;;;25.25;10.40;;;3.60;99.90;;;;;;5150888;27;20046;-39
2022/03/19 02:16:35;;;;;;;24.23;11.52;;;3.50;99.90;;;;;;5151554;27;20599;-38
2022/03/19 02:19:00;;;;;;;17.08;9.52;;;3.50;99.90;;;;;;5152031;27;20027;-38
2022/03/19 02:21:26;;;;;;;19.40;9.35;;;3.50;99.90;;;;;;5135800;27;20478;-38
2022/03/19 02:26:42;;;;;;;21.17;9.25;;;3.40;99.90;;;;;;5151657;27;20420;-38
2022/03/19 02:29:08;;;;;;;17.05;9.55;;;3.40;99.90;;;;;;5152001;27;20490;-38
2022/03/19 02:31:34;;;;;;;24.00;9.88;;;3.40;99.90;;;;;;5151721;27;20066;-38
2022/03/19 02:33:59;;;;;;;21.58;9.30;;;3.40;99.90;;;;;;5150437;27;20057;-39
2022/03/19 02:36:25;;;;;;;23.58;9.63;;;3.40;99.90;;;;;;5151138;27;20418;-38
2022/03/19 02:38:51;;;;;;;20.70;8.73;;;3.30;99.90;;;;;;5151697;27;20063;-38
2022/03/19 02:41:17;;;;;;;23.65;10.10;;;3.30;99.90;;;;;;5151596;27;20097;-38
2022/03/19 02:43:42;;;;;;;17.33;8.05;;;3.40;99.90;;;;;;5151725;27;20121;-38
2022/03/19 02:46:08;;;;;;;22.13;10.02;;;3.30;99.90;;;;;;5150974;27;20093;-39
2022/03/19 02:48:34;;;;;;;18.80;8.05;;;3.30;99.90;;;;;;5151747;27;20425;-38
2022/03/19 02:51:00;;;;;;;19.40;9.85;;;3.30;99.90;;;;;;5135647;27;20023;-38
2022/03/19 02:53:26;;;;;;;27.23;10.05;;;3.20;99.90;;;;;;5141611;27;20036;-38
2022/03/19 02:55:52;;;;;;;29.27;10.80;;;3.30;99.90;;;;;;5150876;27;20395;-38
2022/03/19 02:58:17;;;;;;;25.65;9.85;;;3.30;99.90;;;;;;5136582;27;20129;-38
2022/03/19 03:00:42;;;;;;;31.23;10.68;;;3.20;99.90;;;;;;5110344;28;20040;-38
2022/03/19 03:03:09;;;;;;;22.42;9.38;;;3.20;99.90;;;;;;5110219;28;20035;-38
2022/03/19 03:05:35;;;;;;;20.70;9.70;;;3.20;99.90;;;;;;5109583;28;20128;-39
2022/03/19 03:08:00;;;;;;;26.08;10.98;;;3.20;99.90;;;;;;5109839;28;20037;-39
2022/03/19 03:10:26;;;;;;;19.58;10.43;;;3.10;99.90;;;;;;5115772;27;20031;-38
2022/03/19 03:12:51;;;;;;;25.25;10.88;;;3.20;99.90;;;;;;5120398;27;20051;-38
2022/03/19 03:15:17;;;;;;;17.60;9.55;;;3.10;99.90;;;;;;5119869;27;20020;-38
2022/03/19 03:17:42;;;;;;;19.35;9.10;;;3.10;99.90;;;;;;5117826;27;20373;-38
2022/03/19 03:20:09;;;;;;;26.15;10.68;;;3.10;99.90;;;;;;5120499;27;20640;-38
2022/03/19 03:22:37;;;;;;;33.85;11.85;;;3.10;99.90;;;;;;5126596;27;20137;-38
2022/03/19 03:25:03;;;;;;;21.05;10.60;;;3.00;99.90;;;;;;5123333;27;20027;-38
2022/03/19 03:27:29;;;;;;;22.33;10.23;;;3.10;99.90;;;;;;5116805;27;20069;-38
2022/03/19 03:29:54;;;;;;;23.75;10.30;;;3.00;99.90;;;;;;5119035;27;20627;-47
2022/03/19 03:32:20;;;;;;;18.33;9.43;;;3.00;99.90;;;;;;5119871;27;20043;-46
2022/03/19 03:34:46;;;;;;;25.13;11.40;;;3.00;99.90;;;;;;5118748;27;20107;-46
2022/03/19 03:37:11;;;;;;;22.23;10.95;;;3.00;99.90;;;;;;5117229;27;20069;-47
2022/03/19 03:39:36;;;;;;;20.83;10.40;;;3.00;99.90;;;;;;5119990;27;20019;-48
2022/03/19 03:42:02;;;;;;;27.08;11.10;;;3.00;99.90;;;;;;5119113;27;20396;-47
2022/03/19 03:44:28;;;;;;;24.30;10.10;;;3.00;99.90;;;;;;5115731;27;20036;-48
2022/03/19 03:46:53;;;;;;;20.42;10.25;;;3.00;99.90;;;;;;5108663;28;20027;-48
2022/03/19 03:49:19;;;;;;;17.70;9.43;;;2.90;99.90;;;;;;5107886;28;20389;-48
2022/03/19 03:51:45;;;;;;;26.83;11.02;;;2.90;99.90;;;;;;5119399;27;20022;-47
2022/03/19 03:54:11;;;;;;;20.08;9.73;;;2.80;99.90;;;;;;5141648;27;20059;-47
2022/03/19 03:56:36;;;;;;;19.63;9.13;;;2.80;99.90;;;;;;5120636;27;20103;-46
2022/03/19 03:59:02;;;;;;;31.20;11.48;;;2.70;99.90;;;;;;5109086;28;20411;-46
2022/03/19 04:01:27;;;;;;;30.10;10.73;;;2.70;99.90;;;;;;5107891;28;20024;-47
2022/03/19 04:03:53;;;;;;;29.38;10.18;;;2.80;99.90;;;;;;5109026;28;20553;-48
2022/03/19 04:06:18;;;;;;;19.95;9.85;;;2.70;99.90;;;;;;5108119;28;20495;-50
2022/03/19 04:08:44;;;;;;;21.40;11.07;;;2.70;99.90;;;;;;5109499;28;20024;-48
2022/03/19 04:11:09;;;;;;;17.27;9.55;;;2.60;99.90;;;;;;5108917;28;20027;-48
2022/03/19 04:13:35;;;;;;;16.17;9.13;;;2.60;99.90;;;;;;5109110;28;20042;-48
2022/03/19 04:16:00;;;;;;;18.48;9.05;;;2.60;99.90;;;;;;5108336;28;20016;-49
2022/03/19 04:18:26;;;;;;;17.30;9.68;;;2.60;99.90;;;;;;5108973;28;20016;-48
2022/03/19 04:20:52;;;;;;;17.85;9.63;;;2.50;99.90;;;;;;5108614;28;20016;-47
2022/03/19 04:23:18;;;;;;;21.58;9.82;;;2.50;99.90;;;;;;5138086;27;20019;-47
2022/03/19 04:25:44;;;;;;;20.67;10.05;;;2.40;99.90;;;;;;5149498;27;20106;-47
2022/03/19 04:28:11;;;;;;;18.83;10.07;;;2.50;99.90;;;;;;5150271;27;20071;-47
2022/03/19 04:30:39;;;;;;;20.70;10.18;;;2.40;99.90;;;;;;5150452;27;20022;-49
2022/03/19 04:33:04;;;;;;;19.00;9.52;;;2.40;99.90;;;;;;5150215;27;20019;-47
2022/03/19 04:38:21;;;;;;;26.83;10.95;;;2.30;99.90;;;;;;5150367;27;20037;-49
2022/03/19 04:40:48;;;;;;;19.88;9.65;;;2.30;99.90;;;;;;5150016;27;20490;-48
2022/03/19 04:43:14;;;;;;;23.30;11.20;;;2.30;99.90;;;;;;5152744;27;20031;-47
2022/03/19 04:45:41;;;;;;;24.38;11.23;;;2.20;99.90;;;;;;5153191;27;20029;-47
2022/03/19 04:48:07;;;;;;;26.48;12.82;;;2.30;99.90;;;;;;5152528;27;20050;-50
2022/03/19 04:50:40;;;;;;;31.05;13.57;;;2.30;99.90;;;;;;5148660;27;20046;-50
2022/03/19 04:53:07;;;;;;;29.23;11.85;;;2.30;99.90;;;;;;5137957;27;20023;-48
2022/03/19 04:55:34;;;;;;;34.25;14.55;;;2.30;99.90;;;;;;5153212;27;20019;-48
2022/03/19 04:57:59;;;;;;;31.50;12.93;;;2.20;99.90;;;;;;5153716;27;20447;-46
2022/03/19 05:00:25;;;;;;;35.00;15.02;;;2.20;99.90;;;;;;5153586;27;20110;-47
2022/03/19 05:02:51;;;;;;;24.27;11.43;;;2.20;99.90;;;;;;5153588;27;20029;-47
2022/03/19 05:05:16;;;;;;;32.92;11.77;;;2.20;99.90;;;;;;5152194;27;20023;-47
2022/03/19 05:07:42;;;;;;;24.65;11.05;;;2.20;99.90;;;;;;5152842;27;20436;-47
2022/03/19 05:12:54;;;;;;;27.52;11.20;;;2.20;99.90;;;;;;5153783;27;20037;-47
2022/03/19 05:15:19;;;;;;;41.65;18.65;;;2.20;99.90;;;;;;5153579;27;20061;-47
2022/03/19 05:17:45;;;;;;;35.00;15.13;;;2.10;99.90;;;;;;5152669;27;20608;-47
2022/03/19 05:20:31;;;;;;;33.05;13.63;;;2.20;99.90;;;;;;5152040;27;20098;-48
2022/03/19 05:22:57;;;;;;;29.85;12.77;;;2.10;99.90;;;;;;5124340;27;20131;-47
2022/03/19 05:25:22;;;;;;;28.80;12.88;;;2.10;99.90;;;;;;5129260;27;20035;-47
2022/03/19 05:27:48;;;;;;;31.83;14.15;;;2.10;99.90;;;;;;5131487;27;20500;-47
2022/03/19 05:30:14;;;;;;;20.38;11.02;;;2.00;99.90;;;;;;5132212;27;20438;-47
2022/03/19 05:32:39;;;;;;;28.60;12.68;;;1.90;99.90;;;;;;5132364;27;20030;-48
2022/03/19 05:35:05;;;;;;;24.42;10.45;;;1.90;99.90;;;;;;5132292;27;20027;-48
2022/03/19 05:37:31;;;;;;;22.08;10.30;;;1.80;99.90;;;;;;5131452;27;20064;-46
2022/03/19 05:39:57;;;;;;;23.38;10.57;;;1.80;99.90;;;;;;5132149;27;20539;-47
2022/03/19 05:42:23;;;;;;;28.83;11.18;;;1.70;99.90;;;;;;5130917;27;20023;-47
2022/03/19 05:44:49;;;;;;;24.88;12.35;;;1.70;99.90;;;;;;5132125;27;20027;-47
2022/03/19 05:47:14;;;;;;;23.88;11.20;;;1.70;99.90;;;;;;5131510;27;20108;-47
2022/03/19 05:49:41;;;;;;;24.45;11.13;;;1.70;99.90;;;;;;5130683;27;20118;-47
2022/03/19 05:52:07;;;;;;;33.70;13.20;;;1.70;99.90;;;;;;5131969;27;20071;-53
2022/03/19 05:54:32;;;;;;;31.23;13.93;;;1.70;99.90;;;;;;5144205;27;20019;-49
2022/03/19 05:56:58;;;;;;;34.38;12.32;;;1.70;99.90;;;;;;5152448;27;20383;-47
2022/03/19 05:59:23;;;;;;;28.70;11.30;;;1.70;99.90;;;;;;5152926;27;20414;-47
2022/03/19 06:01:49;;;;;;;32.25;12.35;;;1.60;99.90;;;;;;5152963;27;20027;-46
2022/03/19 06:04:17;;;;;;;22.70;11.13;;;1.70;99.90;;;;;;5152949;27;20026;-46
2022/03/19 06:06:43;;;;;;;27.77;11.75;;;1.60;99.90;;;;;;5150605;27;20450;-46
2022/03/19 06:09:09;;;;;;;34.72;13.63;;;1.70;99.90;;;;;;5152776;27;20102;-48
2022/03/19 06:11:34;;;;;;;37.38;12.48;;;1.70;99.90;;;;;;5152175;27;20030;-47
2022/03/19 06:14:00;;;;;;;32.90;11.30;;;1.80;99.90;;;;;;5152354;27;20101;-46
2022/03/19 06:16:26;;;;;;;28.38;11.65;;;1.80;99.90;;;;;;5126386;27;20019;-46
2022/03/19 06:21:38;;;;;;;20.63;10.63;;;1.80;99.90;;;;;;5129435;27;20532;-46
2022/03/19 06:24:06;;;;;;;28.42;10.68;;;1.90;99.90;;;;;;5143361;27;20029;-46
2022/03/19 06:26:31;;;;;;;29.05;12.18;;;2.00;99.90;;;;;;5140151;27;20035;-47
2022/03/19 06:28:57;;;;;;;33.03;12.27;;;2.10;99.90;;;;;;5110211;27;20033;-47
2022/03/19 06:31:22;;;;;;;34.00;11.25;;;2.10;99.90;;;;;;5110550;28;20028;-49
2022/03/19 06:33:48;;;;;;;27.65;10.65;;;2.20;99.90;;;;;;5110589;28;20024;-47
2022/03/19 06:38:57;;;;;;;25.58;10.93;;;2.30;99.90;;;;;;5110551;28;20027;-47
2022/03/19 06:41:23;;;;;;;39.78;12.75;;;2.40;99.90;;;;;;5110536;28;20412;-46
2022/03/19 06:43:49;;;;;;;23.35;10.40;;;2.40;99.90;;;;;;5110603;28;20036;-46
2022/03/19 06:46:15;;;;;;;30.10;10.43;;;2.40;99.90;;;;;;5109774;28;20102;-48
2022/03/19 06:48:40;;;;;;;29.17;10.98;;;2.50;99.90;;;;;;5110321;28;20038;-48
2022/03/19 06:51:06;;;;;;;25.70;10.60;;;2.50;99.90;;;;;;5108664;27;20031;-47
2022/03/19 06:53:31;;;;;;;23.17;10.27;;;2.60;99.90;;;;;;5141718;27;20378;-47
2022/03/19 06:55:57;;;;;;;25.48;9.23;;;2.70;99.90;;;;;;5150939;27;20022;-47
2022/03/19 06:58:23;;;;;;;26.25;9.55;;;2.70;99.90;;;;;;5151502;27;20046;-47
2022/03/19 07:00:49;;;;;;;26.38;9.43;;;2.80;99.90;;;;;;5151530;27;20481;-47
2022/03/19 07:03:15;;;;;;;18.15;8.40;;;2.90;99.90;;;;;;5142724;27;20032;-46
2022/03/19 07:05:40;;;;;;;31.33;10.35;;;2.90;99.90;;;;;;5117593;27;20035;-47
2022/03/19 07:08:08;;;;;;;24.38;9.80;;;3.00;99.90;;;;;;5119197;27;20019;-47
2022/03/19 07:10:36;;;;;;;22.75;8.88;;;3.10;99.90;;;;;;5109547;27;20031;-50
2022/03/19 07:13:03;;;;;;;26.10;10.27;;;3.20;99.90;;;;;;5109940;28;20026;-48
2022/03/19 07:15:29;;;;;;;28.60;9.00;;;3.20;99.90;;;;;;5108985;28;20020;-47
2022/03/19 07:18:00;;;;;;;31.73;9.00;;;3.20;99.90;;;;;;5109841;28;20073;-50
2022/03/19 07:20:26;;;;;;;29.13;9.55;;;3.30;99.90;;;;;;5108427;27;20027;-47
2022/03/19 07:22:54;;;;;;;21.35;8.55;;;3.30;99.90;;;;;;5133017;27;20459;-48
2022/03/19 07:25:24;;;;;;;28.55;9.20;;;3.40;99.90;;;;;;5149445;27;20030;-47
2022/03/19 07:27:51;;;;;;;23.90;8.73;;;3.50;99.90;;;;;;5150442;27;20029;-47
2022/03/19 07:30:16;;;;;;;22.77;7.65;;;3.60;99.90;;;;;;5150784;27;20021;-47
2022/03/19 07:32:42;;;;;;;19.92;7.65;;;3.60;99.90;;;;;;5150781;27;20487;-47
2022/03/19 07:35:10;;;;;;;19.92;8.18;;;3.70;99.90;;;;;;5150709;27;20027;-47
2022/03/19 07:37:37;;;;;;;25.00;8.25;;;3.70;99.90;;;;;;5149859;27;20268;-47
2022/03/19 07:40:04;;;;;;;25.60;8.13;;;3.80;99.90;;;;;;5150756;27;20538;-46
2022/03/19 07:42:30;;;;;;;28.73;8.07;;;3.80;99.90;;;;;;5150488;27;20422;-47
2022/03/19 07:44:55;;;;;;;26.08;8.85;;;3.80;99.90;;;;;;5150675;27;20176;-48
2022/03/19 07:47:21;;;;;;;25.70;8.13;;;4.00;99.90;;;;;;5134255;27;20035;-48
2022/03/19 07:49:47;;;;;;;23.55;7.75;;;4.00;99.90;;;;;;5125888;27;20043;-49
2022/03/19 07:52:13;;;;;;;28.23;7.68;;;4.10;99.90;;;;;;5126643;27;20030;-47
2022/03/19 07:54:38;;;;;;;23.45;7.55;;;4.20;99.90;;;;;;5142888;27;20031;-48
2022/03/19 07:57:06;;;;;;;19.30;7.20;;;4.30;99.90;;;;;;5149804;27;20045;-50
2022/03/19 07:59:33;;;;;;;24.65;7.28;;;4.30;99.90;;;;;;5150293;27;20035;-46
2022/03/19 08:01:59;;;;;;;25.08;6.15;;;4.40;99.90;;;;;;5148827;27;20498;-47
2022/03/19 08:04:24;;;;;;;17.70;5.90;;;4.50;99.90;;;;;;5114417;28;20290;-47
2022/03/19 08:06:53;;;;;;;22.67;7.05;;;4.60;99.90;;;;;;5112786;28;20028;-48
2022/03/19 08:09:19;;;;;;;26.52;6.25;;;4.70;99.90;;;;;;5129460;27;20027;-47
2022/03/19 08:11:46;;;;;;;15.07;6.15;;;4.90;99.90;;;;;;5129355;28;20031;-47
2022/03/19 08:14:14;;;;;;;21.92;7.13;;;4.90;99.90;;;;;;5129538;27;20196;-46
2022/03/19 08:16:39;;;;;;;25.30;6.68;;;4.90;99.90;;;;;;5120427;27;20045;-47
2022/03/19 08:19:05;;;;;;;19.05;5.78;;;5.00;99.90;;;;;;5122722;27;20020;-47
2022/03/19 08:21:31;;;;;;;16.88;6.25;;;5.10;99.90;;;;;;5126572;27;20026;-50
2022/03/19 08:23:57;;;;;;;18.73;6.70;;;5.20;99.90;;;;;;5126165;27;20027;-47
2022/03/19 08:26:23;;;;;;;26.08;6.15;;;5.40;99.90;;;;;;5112363;28;20028;-50
2022/03/19 08:28:48;;;;;;;14.70;6.03;;;5.50;99.90;;;;;;5094833;28;20480;-48
2022/03/19 08:31:14;;;;;;;13.63;4.80;;;5.70;99.90;;;;;;5112872;28;20031;-48
2022/03/19 08:33:39;;;;;;;14.45;5.50;;;6.20;99.90;;;;;;5111805;28;20112;-47
2022/03/19 08:36:05;;;;;;;13.13;5.30;;;7.20;99.90;;;;;;5112374;28;20024;-48
2022/03/19 08:41:14;;;;;;;11.68;4.57;;;11.00;99.90;;;;;;5117680;27;20071;-50
2022/03/19 08:43:40;;;;;;;11.45;4.57;;;13.10;95.70;;;;;;5133178;27;20023;-46
2022/03/19 08:46:06;;;;;;;11.10;4.30;;;14.10;91.30;;;;;;5132564;27;20452;-49
2022/03/19 08:48:31;;;;;;;12.52;4.60;;;15.50;82.50;;;;;;5132984;27;20030;-47
2022/03/19 08:51:39;;;;;;;10.30;3.80;;;16.70;75.20;;;;;;5128173;27;20028;-48
2022/03/19 08:53:42;;;;;;;8.50;4.32;;;17.60;70.70;;;;;;5123027;27;20025;-49
2022/03/19 08:56:08;;;;;;;10.00;4.35;;;17.60;63.70;;;;;;5151616;27;20019;-47
2022/03/19 08:58:33;;;;;;;15.77;4.78;;;18.10;65.20;;;;;;5153760;27;20019;-48
2022/03/19 09:00:59;;;;;;;11.02;5.10;;;19.10;62.20;;;;;;5138068;27;20081;-47
2022/03/19 09:03:26;;;;;;;11.50;4.57;;;19.70;57.60;;;;;;5120744;27;20547;-47
2022/03/19 09:05:52;;;;;;;8.75;4.68;;;20.60;53.90;;;;;;5121111;27;20031;-47
2022/03/19 09:08:17;;;;;;;14.10;5.20;;;20.50;54.90;;;;;;5123443;27;20020;-50
2022/03/19 09:10:42;;;;;;;10.20;4.03;;;19.90;53.20;;;;;;5122752;27;20116;-48
2022/03/19 09:13:08;;;;;;;12.15;4.43;;;20.70;54.00;;;;;;5122110;27;20019;-47
2022/03/19 09:15:33;;;;;;;10.48;4.55;;;21.10;51.70;;;;;;5120689;27;20054;-49
2022/03/19 09:17:59;;;;;;;15.48;4.95;;;21.00;52.60;;;;;;5121141;27;20027;-47
2022/03/19 09:20:24;;;;;;;11.48;4.72;;;21.70;50.60;;;;;;5121467;27;20043;-48
2022/03/19 09:22:50;;;;;;;8.85;3.90;;;22.00;48.30;;;;;;5127577;27;20399;-49
2022/03/19 09:25:15;;;;;;;8.85;4.30;;;21.20;51.40;;;;;;5121552;27;20360;-50
2022/03/19 09:27:41;;;;;;;12.25;4.63;;;21.90;49.50;;;;;;5121196;27;20087;-50
2022/03/19 09:30:09;;;;;;;8.32;3.70;;;21.90;47.90;;;;;;5111420;28;20034;-49
2022/03/19 09:32:35;;;;;;;12.32;4.35;;;22.10;49.60;;;;;;5111234;28;20128;-51
2022/03/19 09:35:01;;;;;;;10.35;3.83;;;23.00;47.00;;;;;;5110264;28;20545;-48
2022/03/19 09:37:26;;;;;;;6.82;3.83;;;22.90;47.00;;;;;;5111252;28;20028;-47
2022/03/19 09:39:52;;;;;;;12.40;4.78;;;22.50;47.90;;;;;;5111358;28;20020;-47
2022/03/19 09:42:18;;;;;;;13.20;5.18;;;22.50;47.40;;;;;;5118358;27;20069;-49
2022/03/19 09:44:44;;;;;;;9.43;3.70;;;22.80;47.40;;;;;;5131642;27;20051;-46
2022/03/19 09:47:10;;;;;;;10.13;4.15;;;22.90;48.30;;;;;;5130574;27;20015;-49
2022/03/19 09:49:35;;;;;;;9.05;3.40;;;21.90;47.20;;;;;;5130472;27;20038;-46
2022/03/19 09:52:03;;;;;;;10.65;4.53;;;22.80;48.10;;;;;;5133460;27;20026;-48
2022/03/19 09:54:28;;;;;;;8.77;4.05;;;23.80;47.10;;;;;;5143122;27;20022;-47
2022/03/19 09:56:54;;;;;;;10.68;4.82;;;24.00;44.80;;;;;;5151263;27;20019;-49
2022/03/19 09:59:23;;;;;;;7.85;3.90;;;24.40;43.70;;;;;;5152179;27;20187;-48
2022/03/19 10:01:49;;;;;;;9.57;4.03;;;24.50;43.20;;;;;;5151953;27;20036;-47
2022/03/19 10:04:20;;;;;;;9.13;3.38;;;25.40;42.90;;;;;;5152351;27;20471;-48
2022/03/19 10:09:44;;;;;;;7.47;4.05;;;24.90;43.30;;;;;;5152130;27;20088;-47
2022/03/19 10:12:15;;;;;;;7.60;4.00;;;24.90;42.80;;;;;;5152387;27;20110;-49
2022/03/19 10:14:44;;;;;;;8.55;3.90;;;25.00;43.70;;;;;;5135238;27;20027;-48
2022/03/19 10:17:10;;;;;;;10.70;4.15;;;25.70;43.40;;;;;;5130422;27;20016;-47
2022/03/19 10:19:49;;;;;;;7.38;3.75;;;25.50;42.30;;;;;;5131748;27;20103;-47
2022/03/19 10:22:15;;;;;;;15.82;4.38;;;26.20;40.90;;;;;;5134658;27;20063;-47
2022/03/19 10:24:40;;;;;;;8.82;4.13;;;25.30;43.40;;;;;;5144155;27;20030;-48
2022/03/19 10:27:17;;;;;;;8.25;3.70;;;25.10;42.80;;;;;;5151234;27;20058;-47
2022/03/19 10:29:43;;;;;;;7.53;3.97;;;24.80;43.20;;;;;;5152120;27;20015;-48
2022/03/19 10:32:08;;;;;;;9.60;4.28;;;25.60;42.30;;;;;;5135400;27;20054;-49
2022/03/19 10:34:35;;;;;;;8.77;3.60;;;24.80;43.10;;;;;;5128108;27;20023;-47
2022/03/19 10:37:01;;;;;;;8.48;3.30;;;25.30;42.00;;;;;;5128437;27;20019;-47
2022/03/19 10:39:28;;;;;;;10.15;3.78;;;25.80;42.30;;;;;;5128960;27;20033;-46
2022/03/19 10:41:58;;;;;;;7.40;3.22;;;24.70;41.10;;;;;;5130081;27;20019;-46
2022/03/19 10:44:27;;;;;;;9.55;3.53;;;25.40;41.60;;;;;;5122917;27;20031;-47
2022/03/19 10:46:53;;;;;;;7.68;3.22;;;25.90;41.30;;;;;;5119702;27;20552;-49
2022/03/19 10:49:21;;;;;;;9.68;3.70;;;25.00;41.90;;;;;;5114027;27;20028;-46
2022/03/19 10:51:49;;;;;;;7.93;3.35;;;24.90;41.40;;;;;;5118490;27;20051;-49
2022/03/19 10:54:16;;;;;;;6.80;2.85;;;24.90;40.30;;;;;;5137759;27;20488;-46
2022/03/19 10:56:46;;;;;;;8.63;4.32;;;25.00;41.40;;;;;;5127842;27;20492;-48
2022/03/19 10:59:12;;;;;;;13.25;5.60;;;24.70;41.10;;;;;;5129647;27;20059;-46
2022/03/19 11:01:38;;;;;;;9.05;4.03;;;25.00;41.00;;;;;;5129711;27;20055;-47
2022/03/19 11:04:06;;;;;;;9.50;3.83;;;25.40;40.60;;;;;;5129495;27;20054;-47
2022/03/19 11:06:38;;;;;;;7.80;2.88;;;25.50;40.90;;;;;;5118842;27;20019;-46
2022/03/19 11:09:10;;;;;;;7.45;3.20;;;25.20;40.50;;;;;;5105205;27;20035;-49
2022/03/19 11:11:55;;;;;;;8.35;3.10;;;24.20;40.10;;;;;;5118472;27;20028;-47
2022/03/19 11:14:41;;;;;;;7.20;2.83;;;23.70;41.20;;;;;;5088594;28;20071;-50
2022/03/19 11:17:24;;;;;;;9.00;3.17;;;23.90;41.90;;;;;;5104691;28;20481;-50
2022/03/19 11:19:50;;;;;;;7.47;2.78;;;23.10;41.70;;;;;;5108372;28;20027;-47
2022/03/19 11:22:17;;;;;;;5.95;2.88;;;23.10;42.70;;;;;;5127066;27;20052;-48
2022/03/19 11:24:52;;;;;;;6.82;2.80;;;22.00;42.90;;;;;;5143735;27;20391;-49
2022/03/19 11:27:19;;;;;;;5.80;3.08;;;21.30;44.60;;;;;;5150684;27;20025;-46
2022/03/19 11:29:44;;;;;;;7.47;2.38;;;20.70;45.80;;;;;;5150572;27;20066;-48
2022/03/19 11:32:21;;;;;;;7.10;3.15;;;19.70;47.40;;;;;;5150712;27;20518;-48
2022/03/19 11:34:49;;;;;;;11.80;3.00;;;20.40;46.60;;;;;;5149472;27;20023;-46
2022/03/19 11:37:15;;;;;;;6.07;2.40;;;20.80;45.50;;;;;;5149438;27;20014;-47
2022/03/19 11:40:28;;;;;;;6.45;2.53;;;20.10;45.90;;;;;;5150516;27;20042;-47
2022/03/19 11:42:54;;;;;;;7.95;2.88;;;18.80;48.60;;;;;;5148163;27;20027;-47
2022/03/19 11:45:20;;;;;;;4.35;2.08;;;19.20;48.20;;;;;;5138790;27;20039;-49
2022/03/19 11:47:46;;;;;;;7.82;2.15;;;18.40;47.70;;;;;;5127737;27;20015;-49
2022/03/19 11:50:19;;;;;;;7.93;2.17;;;17.80;49.00;;;;;;5129771;27;20023;-46
2022/03/19 11:52:48;;;;;;;7.53;2.63;;;17.50;49.20;;;;;;5132441;27;20577;-49
2022/03/19 11:55:18;;;;;;;4.53;1.70;;;17.10;50.90;;;;;;5129470;27;20101;-48
2022/03/19 11:57:55;;;;;;;6.35;1.80;;;17.30;51.40;;;;;;5129180;27;20051;-47
2022/03/19 12:00:24;;;;;;;5.20;2.08;;;16.60;51.70;;;;;;5127893;27;20027;-47
2022/03/19 12:03:05;;;;;;;5.75;2.92;;;16.10;52.60;;;;;;5128312;27;20047;-46
2022/03/19 12:05:32;;;;;;;8.27;2.75;;;17.30;51.50;;;;;;5128876;28;20050;-47
2022/03/19 12:08:17;;;;;;;7.35;3.00;;;18.80;48.20;;;;;;5128598;28;20102;-46
2022/03/19 12:10:54;;;;;;;7.85;2.40;;;20.00;46.70;;;;;;5129518;28;20031;-46
2022/03/19 12:13:29;;;;;;;3.92;1.98;;;19.60;46.70;;;;;;5129409;28;20015;-47
2022/03/19 12:16:08;;;;;;;7.65;1.88;;;20.50;46.00;;;;;;5127466;28;20034;-50
2022/03/19 12:18:39;;;;;;;4.90;1.83;;;20.00;43.40;;;;;;5129417;27;20464;-46
2022/03/19 12:21:16;;;;;;;4.05;1.80;;;18.70;45.80;;;;;;5125399;28;20027;-46
2022/03/19 12:23:49;;;;;;;5.20;2.10;;;17.80;47.90;;;;;;5130766;27;20026;-46
2022/03/19 12:26:16;;;;;;;4.10;1.58;;;16.90;49.10;;;;;;5121791;28;20164;-47
2022/03/19 12:28:43;;;;;;;5.55;1.75;;;16.70;50.50;;;;;;5119912;28;20069;-48
2022/03/19 12:31:11;;;;;;;7.22;1.80;;;16.60;51.90;;;;;;5118422;27;20015;-49
2022/03/19 12:33:38;;;;;;;7.30;1.70;;;17.10;49.70;;;;;;5119928;27;20086;-45
2022/03/19 12:36:15;;;;;;;5.25;2.10;;;17.10;50.10;;;;;;5117449;27;20151;-48
2022/03/19 12:38:41;;;;;;;11.65;2.55;;;16.90;49.10;;;;;;5114719;27;20023;-46
2022/03/19 12:41:27;;;;;;;7.65;2.97;;;16.30;50.90;;;;;;5114063;27;20035;-46
2022/03/19 12:43:54;;;;;;;4.10;1.98;;;15.70;51.20;;;;;;5108662;28;20062;-49
2022/03/19 12:46:24;;;;;;;7.70;2.72;;;14.50;52.50;;;;;;5107830;28;20016;-49
2022/03/19 12:48:49;;;;;;;54.65;33.95;;;14.30;54.00;;;;;;5107119;28;20162;-45
2022/03/19 12:51:27;;;;;;;96.57;57.08;;;14.20;53.80;;;;;;5110566;27;20080;-47
2022/03/19 12:53:53;;;;;;;8.65;3.38;;;14.10;54.80;;;;;;5140949;27;20015;-46
2022/03/19 12:56:19;;;;;;;5.82;2.10;;;14.40;54.30;;;;;;5149115;27;20026;-46
2022/03/19 12:58:48;;;;;;;4.78;1.80;;;14.30;53.50;;;;;;5149904;27;20022;-46
2022/03/19 13:01:20;;;;;;;4.82;1.30;;;14.10;53.70;;;;;;5149888;27;20070;-47
2022/03/19 13:03:46;;;;;;;5.07;1.40;;;13.80;53.50;;;;;;5151669;27;20064;-47